createdAt,value
2022-09-14T00:01:39.972Z,0.93
2022-09-14T00:04:13.924Z,1.00
2022-09-14T00:06:43.548Z,0.82
2022-09-14T00:09:17.097Z,0.70
2022-09-14T00:11:44.919Z,1.20
2022-09-14T00:14:13.143Z,1.00
2022-09-14T00:16:43.031Z,0.70
2022-09-14T00:19:19.444Z,0.73
2022-09-14T00:21:53.141Z,0.95
2022-09-14T00:24:21.583Z,0.70
2022-09-14T00:26:49.778Z,1.00
2022-09-14T00:29:17.967Z,0.93
2022-09-14T00:31:46.106Z,0.52
2022-09-14T00:34:17.742Z,0.90
2022-09-14T00:36:48.211Z,0.88
2022-09-14T00:39:18.445Z,0.60
2022-09-14T00:41:49.053Z,0.65
2022-09-14T00:44:59.650Z,0.57
2022-09-14T00:47:30.209Z,1.05
2022-09-14T00:50:03.947Z,0.52
2022-09-14T00:52:36.346Z,0.65
2022-09-14T00:55:10.540Z,0.93
2022-09-14T00:57:42.568Z,0.75
2022-09-14T01:00:15.056Z,0.73
2022-09-14T01:02:43.238Z,0.55
2022-09-14T01:05:14.621Z,0.73
2022-09-14T01:08:12.406Z,0.80
2022-09-14T01:10:59.818Z,0.80
2022-09-14T01:13:41.389Z,0.82
2022-09-14T01:16:21.885Z,0.80
2022-09-14T01:18:57.797Z,0.73
2022-09-14T01:21:33.745Z,0.38
2022-09-14T01:24:08.814Z,0.63
2022-09-14T01:27:19.301Z,0.70
2022-09-14T01:29:57.078Z,0.70
2022-09-14T01:32:33.603Z,0.70
2022-09-14T01:35:14.110Z,0.65
2022-09-14T01:37:50.666Z,0.80
2022-09-14T01:40:27.052Z,0.43
2022-09-14T01:43:01.234Z,0.60
2022-09-14T01:45:38.156Z,1.05
2022-09-14T01:48:11.431Z,0.68
2022-09-14T01:50:45.682Z,0.95
2022-09-14T01:53:20.160Z,0.63
2022-09-14T01:55:56.218Z,0.65
2022-09-14T01:58:31.948Z,0.30
2022-09-14T02:01:05.418Z,0.80
2022-09-14T02:03:42.742Z,0.47
2022-09-14T02:06:19.546Z,0.70
2022-09-14T02:08:47.623Z,0.80
2022-09-14T02:11:15.352Z,0.80
2022-09-14T02:13:43.179Z,1.10
2022-09-14T02:16:13.258Z,0.80
2022-09-14T02:18:43.416Z,0.80
2022-09-14T02:21:18.837Z,0.90
2022-09-14T02:23:48.979Z,0.57
2022-09-14T02:26:19.707Z,0.90
2022-09-14T02:28:47.956Z,0.75
2022-09-14T02:31:31.243Z,0.80
2022-09-14T02:34:13.981Z,0.55
2022-09-14T02:36:54.517Z,0.90
2022-09-14T02:39:36.527Z,0.95
2022-09-14T02:42:21.229Z,0.90
2022-09-14T02:47:39.289Z,0.65
2022-09-14T02:50:21.757Z,0.50
2022-09-14T02:52:59.761Z,0.60
2022-09-14T02:55:35.213Z,0.75
2022-09-14T02:58:06.941Z,0.90
2022-09-14T03:00:40.233Z,0.90
2022-09-14T03:03:12.022Z,1.10
2022-09-14T03:05:40.570Z,0.90
2022-09-14T03:08:10.177Z,0.82
2022-09-14T03:10:38.402Z,1.08
2022-09-14T03:13:06.263Z,0.95
2022-09-14T03:15:33.997Z,0.77
2022-09-14T03:18:01.688Z,0.60
2022-09-14T03:20:34.373Z,0.50
2022-09-14T03:23:04.007Z,0.70
2022-09-14T03:25:32.357Z,0.98
2022-09-14T03:28:01.091Z,0.85
2022-09-14T03:30:29.143Z,0.82
2022-09-14T03:32:56.862Z,0.60
2022-09-14T03:35:24.604Z,1.00
2022-09-14T03:37:53.644Z,1.10
2022-09-14T03:40:22.185Z,0.80
2022-09-14T03:42:52.388Z,0.47
2022-09-14T03:45:22.321Z,0.70
2022-09-14T03:47:50.870Z,0.90
2022-09-14T03:50:20.120Z,0.88
2022-09-14T03:52:48.560Z,0.95
2022-09-14T03:55:19.136Z,0.70
2022-09-14T03:57:46.828Z,0.68
2022-09-14T04:00:15.731Z,0.85
2022-09-14T04:02:44.424Z,0.85
2022-09-14T04:05:12.333Z,0.90
2022-09-14T04:07:40.067Z,0.63
2022-09-14T04:10:09.383Z,0.77
2022-09-14T04:12:39.735Z,0.50
2022-09-14T04:15:09.506Z,1.00
2022-09-14T04:17:37.458Z,0.60
2022-09-14T04:20:06.016Z,0.60
2022-09-14T04:22:35.177Z,0.60
2022-09-14T04:25:03.073Z,0.73
2022-09-14T04:27:31.503Z,0.80
2022-09-14T04:30:00.542Z,1.08
2022-09-14T04:32:33.472Z,0.50
2022-09-14T04:35:02.087Z,0.68
2022-09-14T04:37:32.677Z,1.13
2022-09-14T04:40:00.843Z,0.88
2022-09-14T04:42:30.161Z,0.68
2022-09-14T04:44:57.921Z,0.77
2022-09-14T04:47:26.965Z,0.75
2022-09-14T04:49:54.638Z,0.68
2022-09-14T04:52:23.299Z,0.63
2022-09-14T04:54:51.078Z,0.70
2022-09-14T04:57:18.832Z,0.70
2022-09-14T04:59:46.676Z,0.60
2022-09-14T05:02:14.571Z,0.85
2022-09-14T05:04:43.758Z,0.73
2022-09-14T05:07:12.063Z,0.57
2022-09-14T05:09:39.809Z,0.93
2022-09-14T05:12:08.524Z,0.93
2022-09-14T05:14:36.237Z,0.90
2022-09-14T05:17:04.696Z,0.85
2022-09-14T05:19:32.603Z,0.65
2022-09-14T05:22:01.636Z,0.95
2022-09-14T05:24:29.387Z,0.95
2022-09-14T05:27:01.038Z,0.73
2022-09-14T05:29:31.704Z,0.85
2022-09-14T05:31:59.588Z,0.88
2022-09-14T05:34:27.348Z,0.73
2022-09-14T05:36:55.077Z,0.50
2022-09-14T05:39:24.898Z,0.75
2022-09-14T05:41:52.881Z,1.63
2022-09-14T05:44:21.830Z,1.23
2022-09-14T05:46:49.637Z,1.13
2022-09-14T05:49:17.404Z,1.30
2022-09-14T05:51:45.109Z,1.10
2022-09-14T05:54:12.861Z,1.10
2022-09-14T05:56:41.980Z,1.27
2022-09-14T05:59:10.689Z,0.93
2022-09-14T06:01:38.521Z,1.45
2022-09-14T06:04:06.282Z,1.10
2022-09-14T06:06:35.051Z,1.10
2022-09-14T06:09:03.997Z,1.08
2022-09-14T06:11:36.169Z,1.08
2022-09-14T06:14:06.313Z,0.80
2022-09-14T06:16:34.621Z,0.80
2022-09-14T06:19:02.667Z,1.10
2022-09-14T06:21:33.332Z,0.77
2022-09-14T06:24:01.564Z,0.80
2022-09-14T06:26:29.528Z,1.00
2022-09-14T06:28:57.525Z,1.27
2022-09-14T06:31:26.636Z,1.27
2022-09-14T06:33:54.892Z,1.23
2022-09-14T06:36:25.872Z,0.82
2022-09-14T06:38:54.438Z,1.08
2022-09-14T06:41:26.415Z,1.30
2022-09-14T06:43:56.691Z,1.30
2022-09-14T06:46:28.930Z,0.90
2022-09-14T06:49:02.108Z,0.60
2022-09-14T06:51:32.739Z,1.10
2022-09-14T06:54:02.088Z,0.95
2022-09-14T06:56:32.996Z,1.08
2022-09-14T06:59:01.123Z,0.98
2022-09-14T07:01:30.801Z,0.80
2022-09-14T07:04:01.326Z,0.80
2022-09-14T07:06:32.294Z,1.33
2022-09-14T07:09:03.962Z,0.90
2022-09-14T07:11:32.554Z,1.00
2022-09-14T07:14:00.368Z,0.88
2022-09-14T07:16:31.419Z,1.27
2022-09-14T07:19:02.302Z,1.00
2022-09-14T07:21:31.860Z,1.00
2022-09-14T07:24:00.324Z,1.20
2022-09-14T07:26:30.800Z,0.75
2022-09-14T07:29:02.182Z,0.85
2022-09-14T07:31:34.219Z,0.82
2022-09-14T07:34:04.373Z,0.80
2022-09-14T07:36:35.288Z,0.98
2022-09-14T07:39:05.309Z,0.70
2022-09-14T07:41:34.630Z,0.70
2022-09-14T07:44:05.572Z,1.10
2022-09-14T07:46:42.110Z,0.80
2022-09-14T07:49:11.796Z,0.85
2022-09-14T07:51:40.214Z,1.63
2022-09-14T07:54:12.140Z,1.42
2022-09-14T07:56:41.224Z,0.70
2022-09-14T07:59:34.508Z,1.35
2022-09-14T08:02:01.416Z,1.00
2022-09-14T08:04:29.353Z,1.17
2022-09-14T08:06:57.842Z,0.65
2022-09-14T08:09:25.713Z,0.88
2022-09-14T08:11:53.739Z,1.17
2022-09-14T08:14:21.758Z,0.77
2022-09-14T08:16:49.912Z,0.82
2022-09-14T08:19:20.786Z,1.40
2022-09-14T08:21:49.581Z,1.27
2022-09-14T08:24:20.589Z,1.33
2022-09-14T08:26:49.652Z,1.08
2022-09-14T08:29:19.905Z,1.20
2022-09-14T08:31:51.465Z,0.85
2022-09-14T08:34:21.761Z,0.60
2022-09-14T08:36:49.990Z,0.95
2022-09-14T08:39:18.652Z,0.77
2022-09-14T08:41:53.742Z,1.05
2022-09-14T08:44:28.097Z,0.98
2022-09-14T08:49:48.290Z,1.17
2022-09-14T08:52:26.427Z,1.15
2022-09-14T08:54:57.690Z,1.50
2022-09-14T08:57:44.036Z,1.25
2022-09-14T09:00:17.736Z,1.48
2022-09-14T09:03:28.180Z,1.08
2022-09-14T09:06:15.742Z,1.48
2022-09-14T09:08:59.707Z,0.77
2022-09-14T09:11:38.354Z,1.02
2022-09-14T09:14:19.926Z,0.80
2022-09-14T09:16:57.839Z,1.08
2022-09-14T09:19:33.560Z,1.05
2022-09-14T09:22:05.885Z,1.42
2022-09-14T09:24:40.540Z,1.33
2022-09-14T09:27:11.926Z,1.40
2022-09-14T09:29:39.838Z,1.27
2022-09-14T09:32:13.446Z,1.30
2022-09-14T09:34:41.285Z,0.98
2022-09-14T09:37:15.188Z,1.20
2022-09-14T09:39:44.853Z,0.85
2022-09-14T09:42:21.453Z,1.02
2022-09-14T09:45:02.517Z,1.17
2022-09-14T09:47:38.248Z,1.27
2022-09-14T09:50:18.818Z,0.63
2022-09-14T09:52:53.983Z,1.00
2022-09-14T09:55:29.254Z,1.10
2022-09-14T09:57:56.985Z,1.15
2022-09-14T10:00:28.092Z,1.15
2022-09-14T10:02:57.136Z,1.55
2022-09-14T10:05:30.944Z,1.23
2022-09-14T10:08:06.935Z,1.15
2022-09-14T10:10:44.524Z,0.98
2022-09-14T10:13:27.067Z,1.25
2022-09-14T10:16:05.588Z,1.00
2022-09-14T10:18:33.613Z,1.35
2022-09-14T10:21:09.980Z,1.60
2022-09-14T10:23:40.940Z,1.33
2022-09-14T10:26:32.140Z,1.20
2022-09-14T10:29:29.366Z,1.00
2022-09-14T10:32:08.112Z,1.42
2022-09-14T10:34:35.927Z,1.60
2022-09-14T10:37:31.941Z,1.50
2022-09-14T10:40:17.845Z,1.23
2022-09-14T10:43:01.428Z,1.38
2022-09-14T10:45:35.823Z,1.65
2022-09-14T10:48:33.293Z,1.08
2022-09-14T10:51:23.369Z,1.88
2022-09-14T10:54:03.517Z,1.45
2022-09-14T10:57:05.363Z,1.27
2022-09-14T10:59:46.438Z,1.20
2022-09-14T11:02:41.410Z,1.45
2022-09-14T11:05:20.900Z,1.23
2022-09-14T11:08:12.548Z,1.45
2022-09-14T11:11:08.069Z,1.35
2022-09-14T11:14:02.789Z,1.27
2022-09-14T11:17:07.583Z,1.77
2022-09-14T11:19:49.913Z,0.90
2022-09-14T11:22:31.659Z,1.08
2022-09-14T11:25:06.529Z,1.13
2022-09-14T11:27:43.640Z,0.80
2022-09-14T11:30:18.776Z,1.45
2022-09-14T11:32:52.642Z,1.00
2022-09-14T11:35:25.699Z,1.40
2022-09-14T11:38:00.600Z,0.93
2022-09-14T11:40:35.949Z,1.17
2022-09-14T11:43:12.874Z,1.13
2022-09-14T11:45:49.137Z,1.02
2022-09-14T11:48:44.022Z,1.52
2022-09-14T11:51:18.188Z,1.10
2022-09-14T11:53:47.240Z,1.48
2022-09-14T11:56:26.669Z,1.52
2022-09-14T11:58:57.699Z,1.30
2022-09-14T12:01:32.033Z,1.10
2022-09-14T12:04:16.265Z,1.20
2022-09-14T12:06:56.209Z,1.42
2022-09-14T12:09:45.977Z,1.20
2022-09-14T12:12:45.320Z,1.30
2022-09-14T12:15:23.593Z,1.30
2022-09-14T12:18:14.923Z,1.38
2022-09-14T12:20:45.957Z,1.70
2022-09-14T12:23:23.354Z,1.13
2022-09-14T12:26:03.672Z,1.40
2022-09-14T12:28:47.941Z,1.20
2022-09-14T12:32:03.060Z,1.23
2022-09-14T12:34:34.128Z,1.17
2022-09-14T12:37:33.018Z,0.82
2022-09-14T12:40:39.614Z,0.95
2022-09-14T12:43:55.596Z,1.30
2022-09-14T12:46:38.665Z,1.20
2022-09-14T12:49:35.444Z,0.95
2022-09-14T12:52:29.969Z,1.05
2022-09-14T12:55:27.878Z,0.93
2022-09-14T12:58:08.236Z,1.00
2022-09-14T13:00:58.381Z,1.10
2022-09-14T13:03:48.225Z,1.20
2022-09-14T13:06:19.197Z,0.77
2022-09-14T13:08:50.967Z,1.27
2022-09-14T13:11:27.058Z,1.88
2022-09-14T13:13:56.574Z,1.13
2022-09-14T13:16:38.567Z,1.13
2022-09-14T13:19:21.293Z,1.17
2022-09-14T13:21:54.469Z,0.90
2022-09-14T13:24:32.373Z,1.15
2022-09-14T13:27:04.269Z,1.17
2022-09-14T13:29:32.624Z,1.33
2022-09-14T13:32:04.006Z,0.93
2022-09-14T13:34:38.264Z,0.80
2022-09-14T13:37:07.529Z,1.13
2022-09-14T13:39:40.559Z,1.17
2022-09-14T13:42:10.330Z,0.90
2022-09-14T13:44:45.383Z,1.58
2022-09-14T13:47:16.797Z,1.42
2022-09-14T13:49:47.458Z,1.30
2022-09-14T13:52:43.494Z,1.27
2022-09-14T13:55:25.795Z,1.42
2022-09-14T13:58:22.936Z,1.52
2022-09-14T14:00:59.091Z,1.40
2022-09-14T14:03:37.876Z,1.05
2022-09-14T14:06:23.667Z,1.23
2022-09-14T14:09:01.118Z,1.25
2022-09-14T14:11:35.329Z,0.80
2022-09-14T14:14:20.086Z,1.50
2022-09-14T14:17:24.627Z,1.20
2022-09-14T14:19:54.880Z,1.02
2022-09-14T14:22:30.081Z,1.58
2022-09-14T14:25:15.784Z,1.10
2022-09-14T14:27:47.806Z,1.45
2022-09-14T14:30:18.469Z,0.80
2022-09-14T14:32:51.268Z,0.90
2022-09-14T14:35:23.156Z,1.05
2022-09-14T14:37:51.810Z,1.38
2022-09-14T14:40:21.295Z,0.90
2022-09-14T14:42:51.293Z,1.90
2022-09-14T14:45:26.122Z,1.02
2022-09-14T14:47:56.254Z,1.27
2022-09-14T14:50:29.208Z,1.02
2022-09-14T14:52:57.227Z,1.17
2022-09-14T14:55:27.335Z,1.33
2022-09-14T14:58:00.465Z,1.45
2022-09-14T15:00:33.323Z,1.03
2022-09-14T15:03:01.817Z,1.35
2022-09-14T15:05:30.942Z,1.48
2022-09-14T15:07:58.716Z,1.48
2022-09-14T15:10:30.493Z,1.38
2022-09-14T15:12:58.206Z,1.25
2022-09-14T15:15:27.439Z,1.27
2022-09-14T15:17:55.536Z,0.90
2022-09-14T15:20:23.986Z,1.17
2022-09-14T15:22:51.906Z,1.50
2022-09-14T15:25:22.454Z,1.35
2022-09-14T15:27:51.545Z,5.65
2022-09-14T15:30:19.359Z,7.97
2022-09-14T15:32:47.076Z,4.82
2022-09-14T15:35:16.508Z,2.67
2022-09-14T15:37:44.272Z,2.25
2022-09-14T15:40:12.688Z,2.17
2022-09-14T15:42:40.447Z,1.98
2022-09-14T15:45:11.230Z,1.35
2022-09-14T15:47:39.109Z,1.40
2022-09-14T15:50:07.912Z,1.13
2022-09-14T15:52:37.093Z,1.00
2022-09-14T15:55:07.131Z,1.15
2022-09-14T15:57:35.445Z,1.00
2022-09-14T16:00:07.907Z,1.17
2022-09-14T16:02:37.133Z,1.38
2022-09-14T16:05:05.429Z,1.05
2022-09-14T16:07:33.198Z,1.27
2022-09-14T16:10:01.003Z,1.50
2022-09-14T16:12:28.815Z,0.95
2022-09-14T16:14:56.562Z,0.88
2022-09-14T16:17:24.330Z,1.70
2022-09-14T16:19:53.447Z,0.98
2022-09-14T16:22:21.653Z,1.50
2022-09-14T16:24:49.693Z,0.90
2022-09-14T16:27:17.996Z,0.88
2022-09-14T16:29:45.774Z,1.05
2022-09-14T16:32:13.705Z,1.42
2022-09-14T16:34:41.550Z,1.13
2022-09-14T16:37:10.595Z,1.25
2022-09-14T16:39:38.313Z,1.08
2022-09-14T16:42:07.012Z,1.17
2022-09-14T16:44:34.726Z,1.50
2022-09-14T16:47:02.593Z,1.27
2022-09-14T16:49:30.868Z,1.48
2022-09-14T16:52:00.524Z,0.80
2022-09-14T16:54:31.563Z,1.30
2022-09-14T16:57:01.114Z,0.80
2022-09-14T16:59:29.061Z,1.15
2022-09-14T17:01:56.855Z,1.15
2022-09-14T17:04:25.974Z,1.05
2022-09-14T17:06:55.840Z,1.20
2022-09-14T17:09:26.402Z,1.33
2022-09-14T17:11:57.432Z,0.95
2022-09-14T17:14:28.249Z,0.77
2022-09-14T17:16:57.151Z,1.15
2022-09-14T17:19:26.765Z,0.93
2022-09-14T17:21:55.093Z,1.27
2022-09-14T17:24:24.037Z,1.60
2022-09-14T17:26:51.770Z,0.90
2022-09-14T17:29:20.884Z,1.02
2022-09-14T17:31:49.585Z,1.02
2022-09-14T17:34:18.126Z,1.23
2022-09-14T17:36:46.555Z,1.45
2022-09-14T17:39:15.326Z,1.02
2022-09-14T17:41:43.939Z,1.42
2022-09-14T17:44:14.406Z,1.13
2022-09-14T17:46:52.189Z,1.20
2022-09-14T17:49:21.888Z,0.88
2022-09-14T17:51:50.711Z,1.27
2022-09-14T17:54:19.844Z,0.85
2022-09-14T17:56:48.408Z,1.17
2022-09-14T17:59:20.713Z,0.90
2022-09-14T18:01:51.172Z,1.35
2022-09-14T18:04:19.544Z,1.00
2022-09-14T18:06:49.705Z,1.58
2022-09-14T18:09:21.703Z,1.13
2022-09-14T18:11:56.957Z,1.00
2022-09-14T18:14:25.538Z,1.17
2022-09-14T18:16:54.846Z,1.35
2022-09-14T18:19:23.093Z,1.20
2022-09-14T18:21:52.871Z,0.95
2022-09-14T18:24:21.774Z,0.90
2022-09-14T18:26:49.732Z,0.90
2022-09-14T18:29:22.983Z,2.15
2022-09-14T18:31:51.420Z,1.08
2022-09-14T18:34:22.008Z,1.45
2022-09-14T18:36:52.191Z,1.55
2022-09-14T18:39:20.204Z,0.95
2022-09-14T18:41:53.502Z,1.40
2022-09-14T18:44:21.762Z,1.60
2022-09-14T18:46:51.001Z,1.48
2022-09-14T18:49:20.953Z,1.23
2022-09-14T18:51:48.734Z,1.55
2022-09-14T18:54:16.738Z,1.13
2022-09-14T18:56:44.451Z,1.42
2022-09-14T18:59:15.710Z,1.20
2022-09-14T19:01:44.309Z,1.58
2022-09-14T19:04:12.821Z,1.23
2022-09-14T19:06:44.329Z,1.52
2022-09-14T19:09:12.474Z,1.05
2022-09-14T19:11:40.202Z,1.38
2022-09-14T19:14:12.604Z,1.65
2022-09-14T19:16:42.503Z,1.30
2022-09-14T19:19:14.860Z,1.60
2022-09-14T19:21:45.648Z,0.93
2022-09-14T19:24:15.924Z,1.45
2022-09-14T19:26:46.891Z,1.17
2022-09-14T19:29:17.093Z,1.02
2022-09-14T19:31:45.194Z,1.35
2022-09-14T19:34:13.112Z,1.27
2022-09-14T19:36:40.846Z,1.13
2022-09-14T19:39:10.485Z,1.13
2022-09-14T19:41:39.166Z,1.60
2022-09-14T19:44:08.355Z,1.33
2022-09-14T19:46:38.498Z,1.33
2022-09-14T19:49:06.631Z,0.77
2022-09-14T19:51:35.753Z,1.08
2022-09-14T19:54:03.542Z,1.60
2022-09-14T19:56:33.659Z,1.50
2022-09-14T19:59:04.092Z,0.93
2022-09-14T20:01:34.365Z,1.30
2022-09-14T20:04:03.023Z,0.65
2022-09-14T20:06:34.557Z,1.10
2022-09-14T20:09:06.401Z,1.33
2022-09-14T20:11:38.148Z,1.10
2022-09-14T20:14:13.676Z,0.60
2022-09-14T20:16:46.806Z,0.52
2022-09-14T20:19:18.042Z,0.95
2022-09-14T20:21:48.016Z,0.75
2022-09-14T20:24:20.453Z,0.60
2022-09-14T20:26:51.811Z,0.93
2022-09-14T20:29:24.112Z,1.08
2022-09-14T20:31:52.811Z,1.00
2022-09-14T20:34:21.806Z,1.42
2022-09-14T20:36:51.201Z,0.90
2022-09-14T20:39:21.939Z,1.05
2022-09-14T20:41:51.321Z,0.88
2022-09-14T20:44:22.206Z,1.00
2022-09-14T20:46:51.721Z,1.42
2022-09-14T20:49:23.038Z,1.30
2022-09-14T20:51:52.458Z,1.15
2022-09-14T20:54:20.803Z,0.80
2022-09-14T20:56:48.634Z,0.77
2022-09-14T20:59:22.032Z,1.15
2022-09-14T21:01:52.371Z,1.23
2022-09-14T21:04:23.114Z,1.05
2022-09-14T21:06:55.547Z,0.60
2022-09-14T21:09:27.031Z,0.68
2022-09-14T21:11:55.588Z,0.32
2022-09-14T21:14:24.748Z,0.65
2022-09-14T21:16:56.578Z,0.80
2022-09-14T21:19:28.437Z,1.00
2022-09-14T21:21:56.601Z,0.88
2022-09-14T21:24:25.113Z,0.90
2022-09-14T21:26:52.816Z,0.70
2022-09-14T21:29:24.478Z,1.00
2022-09-14T21:31:53.494Z,0.60
2022-09-14T21:34:21.648Z,0.47
2022-09-14T21:36:51.894Z,0.85
2022-09-14T21:39:23.817Z,0.57
2022-09-14T21:41:58.101Z,0.43
2022-09-14T21:44:32.073Z,0.88
2022-09-14T21:47:00.280Z,0.68
2022-09-14T21:49:28.040Z,1.02
2022-09-14T21:51:55.908Z,0.98
2022-09-14T21:54:24.135Z,0.50
2022-09-14T21:56:53.866Z,0.68
2022-09-14T21:59:23.802Z,0.88
2022-09-14T22:01:53.064Z,0.80
2022-09-14T22:04:24.098Z,0.50
2022-09-14T22:06:53.115Z,0.93
2022-09-14T22:09:25.492Z,0.60
2022-09-14T22:11:53.946Z,0.70
2022-09-14T22:14:26.769Z,0.52
2022-09-14T22:16:56.317Z,0.43
2022-09-14T22:19:27.391Z,0.65
2022-09-14T22:21:56.483Z,0.63
2022-09-14T22:24:27.367Z,0.60
2022-09-14T22:26:55.951Z,1.15
2022-09-14T22:29:25.502Z,0.85
2022-09-14T22:31:54.772Z,0.30
2022-09-14T22:34:22.713Z,0.85
2022-09-14T22:36:50.432Z,0.43
2022-09-14T22:39:18.203Z,1.25
2022-09-14T22:41:45.948Z,1.58
2022-09-14T22:44:14.105Z,0.85
2022-09-14T22:46:42.015Z,1.42
2022-09-14T22:49:11.535Z,0.93
2022-09-14T22:51:39.820Z,0.90
2022-09-14T22:54:08.186Z,0.93
2022-09-14T22:56:38.881Z,1.17
2022-09-14T22:59:08.976Z,1.20
2022-09-14T23:01:41.188Z,1.35
2022-09-14T23:04:14.388Z,1.38
2022-09-14T23:06:45.218Z,1.30
2022-09-14T23:09:16.708Z,0.63
2022-09-14T23:11:45.118Z,0.63
2022-09-14T23:14:13.460Z,0.75
2022-09-14T23:16:44.476Z,0.80
2022-09-14T23:19:17.315Z,0.60
2022-09-14T23:21:45.932Z,0.95
2022-09-14T23:24:14.624Z,0.70
2022-09-14T23:26:43.156Z,0.60
2022-09-14T23:29:16.294Z,0.50
2022-09-14T23:31:45.001Z,0.63
2022-09-14T23:34:15.078Z,0.47
2022-09-14T23:36:42.859Z,0.77
2022-09-14T23:39:10.616Z,0.90
2022-09-14T23:41:39.088Z,0.98
2022-09-14T23:44:06.980Z,0.80
2022-09-14T23:46:34.746Z,0.32
2022-09-14T23:49:02.794Z,0.65
2022-09-14T23:51:32.155Z,0.45
2022-09-14T23:54:00.030Z,0.45
2022-09-14T23:56:27.845Z,0.43
2022-09-14T23:58:55.761Z,0.30
